sensor_id;sensor_type;location;lat;lon;timestamp;pressure;altitude;pressure_sealevel;temperature;humidity
48862;BME280;34681;49.188;-0.374;2023-02-17T00:00:06;102355.81;;;14.10;77.56
48862;BME280;34681;49.188;-0.374;2023-02-17T00:02:34;102350.22;;;13.89;78.37
48862;BME280;34681;49.188;-0.374;2023-02-17T00:05:00;102355.31;;;14.04;78.03
48862;BME280;34681;49.188;-0.374;2023-02-17T00:07:25;102352.81;;;14.01;77.98
48862;BME280;34681;49.188;-0.374;2023-02-17T00:09:56;102345.22;;;13.94;77.76
48862;BME280;34681;49.188;-0.374;2023-02-17T00:12:21;102348.69;;;14.07;77.94
48862;BME280;34681;49.188;-0.374;2023-02-17T00:14:46;102348.78;;;14.05;78.21
48862;BME280;34681;49.188;-0.374;2023-02-17T00:17:12;102355.94;;;14.08;78.03
48862;BME280;34681;49.188;-0.374;2023-02-17T00:19:38;102353.50;;;14.15;77.68
48862;BME280;34681;49.188;-0.374;2023-02-17T00:22:03;102357.19;;;14.04;78.23
48862;BME280;34681;49.188;-0.374;2023-02-17T00:24:30;102367.50;;;13.91;78.86
48862;BME280;34681;49.188;-0.374;2023-02-17T00:26:56;102369.59;;;13.98;78.68
48862;BME280;34681;49.188;-0.374;2023-02-17T00:29:21;102361.16;;;14.11;78.14
48862;BME280;34681;49.188;-0.374;2023-02-17T00:31:47;102364.25;;;13.86;79.02
48862;BME280;34681;49.188;-0.374;2023-02-17T00:34:12;102363.78;;;13.69;79.98
48862;BME280;34681;49.188;-0.374;2023-02-17T00:36:38;102351.66;;;13.72;80.17
48862;BME280;34681;49.188;-0.374;2023-02-17T00:39:05;102358.78;;;13.74;80.01
48862;BME280;34681;49.188;-0.374;2023-02-17T00:41:31;102357.50;;;13.78;79.79
48862;BME280;34681;49.188;-0.374;2023-02-17T00:43:56;102347.00;;;13.72;80.21
48862;BME280;34681;49.188;-0.374;2023-02-17T00:46:22;102341.69;;;13.60;80.43
48862;BME280;34681;49.188;-0.374;2023-02-17T00:48:48;102344.56;;;13.47;81.34
48862;BME280;34681;49.188;-0.374;2023-02-17T00:51:17;102338.66;;;13.63;80.83
48862;BME280;34681;49.188;-0.374;2023-02-17T00:53:43;102342.78;;;13.68;80.44
48862;BME280;34681;49.188;-0.374;2023-02-17T00:56:09;102352.81;;;13.58;80.87
48862;BME280;34681;49.188;-0.374;2023-02-17T00:58:35;102337.59;;;13.43;81.51
48862;BME280;34681;49.188;-0.374;2023-02-17T01:01:01;102342.19;;;13.54;81.30
48862;BME280;34681;49.188;-0.374;2023-02-17T01:03:27;102333.19;;;13.52;81.31
48862;BME280;34681;49.188;-0.374;2023-02-17T01:05:53;102334.81;;;13.54;81.13
48862;BME280;34681;49.188;-0.374;2023-02-17T01:08:20;102326.56;;;13.54;81.35
48862;BME280;34681;49.188;-0.374;2023-02-17T01:10:47;102330.69;;;13.60;81.11
48862;BME280;34681;49.188;-0.374;2023-02-17T01:13:14;102340.06;;;13.57;81.13
48862;BME280;34681;49.188;-0.374;2023-02-17T01:15:43;102335.94;;;13.52;81.35
48862;BME280;34681;49.188;-0.374;2023-02-17T01:18:09;102346.78;;;13.64;81.14
48862;BME280;34681;49.188;-0.374;2023-02-17T01:20:35;102349.06;;;13.59;80.95
48862;BME280;34681;49.188;-0.374;2023-02-17T01:23:01;102341.81;;;13.58;81.15
48862;BME280;34681;49.188;-0.374;2023-02-17T01:25:26;102351.47;;;13.96;79.75
48862;BME280;34681;49.188;-0.374;2023-02-17T01:27:52;102351.75;;;13.82;79.83
48862;BME280;34681;49.188;-0.374;2023-02-17T01:30:17;102338.13;;;13.80;80.06
48862;BME280;34681;49.188;-0.374;2023-02-17T01:32:43;102346.19;;;14.04;79.54
48862;BME280;34681;49.188;-0.374;2023-02-17T01:35:08;102349.13;;;13.91;79.54
48862;BME280;34681;49.188;-0.374;2023-02-17T01:37:33;102347.75;;;13.86;79.64
48862;BME280;34681;49.188;-0.374;2023-02-17T01:39:59;102337.22;;;13.91;79.76
48862;BME280;34681;49.188;-0.374;2023-02-17T01:42:24;102344.94;;;13.97;79.10
48862;BME280;34681;49.188;-0.374;2023-02-17T01:47:50;102353.84;;;13.89;79.64
48862;BME280;34681;49.188;-0.374;2023-02-17T01:50:21;102353.63;;;13.81;79.68
48862;BME280;34681;49.188;-0.374;2023-02-17T01:52:48;102361.47;;;13.97;79.44
48862;BME280;34681;49.188;-0.374;2023-02-17T01:55:16;102353.44;;;14.05;79.32
48862;BME280;34681;49.188;-0.374;2023-02-17T01:57:44;102348.06;;;14.03;78.86
48862;BME280;34681;49.188;-0.374;2023-02-17T02:00:12;102352.09;;;13.99;78.88
48862;BME280;34681;49.188;-0.374;2023-02-17T02:02:41;102349.56;;;14.08;78.91
48862;BME280;34681;49.188;-0.374;2023-02-17T02:05:08;102349.78;;;14.16;78.70
48862;BME280;34681;49.188;-0.374;2023-02-17T02:07:37;102343.34;;;14.26;78.08
48862;BME280;34681;49.188;-0.374;2023-02-17T02:10:05;102338.19;;;14.33;77.70
48862;BME280;34681;49.188;-0.374;2023-02-17T02:12:34;102344.59;;;14.22;78.18
48862;BME280;34681;49.188;-0.374;2023-02-17T02:15:30;102333.06;;;14.28;77.62
48862;BME280;34681;49.188;-0.374;2023-02-17T02:23:14;102331.38;;;14.16;78.00
48862;BME280;34681;49.188;-0.374;2023-02-17T02:25:57;102327.69;;;14.27;77.85
48862;BME280;34681;49.188;-0.374;2023-02-17T02:34:14;102325.09;;;14.25;77.77
48862;BME280;34681;49.188;-0.374;2023-02-17T02:36:48;102324.25;;;14.14;78.35
48862;BME280;34681;49.188;-0.374;2023-02-17T02:39:18;102315.31;;;14.21;78.35
48862;BME280;34681;49.188;-0.374;2023-02-17T02:41:52;102313.84;;;14.38;77.93
48862;BME280;34681;49.188;-0.374;2023-02-17T02:44:19;102312.63;;;14.31;77.87
48862;BME280;34681;49.188;-0.374;2023-02-17T02:46:58;102302.75;;;14.60;76.85
48862;BME280;34681;49.188;-0.374;2023-02-17T02:49:24;102304.06;;;14.24;77.62
48862;BME280;34681;49.188;-0.374;2023-02-17T02:52:08;102300.88;;;14.08;78.43
48862;BME280;34681;49.188;-0.374;2023-02-17T02:54:52;102301.84;;;14.18;78.44
48862;BME280;34681;49.188;-0.374;2023-02-17T03:00:31;102295.00;;;14.33;77.67
48862;BME280;34681;49.188;-0.374;2023-02-17T03:03:12;102293.44;;;14.20;78.39
48862;BME280;34681;49.188;-0.374;2023-02-17T03:08:21;102295.09;;;13.90;79.55
48862;BME280;34681;49.188;-0.374;2023-02-17T03:10:51;102291.00;;;14.05;79.46
48862;BME280;34681;49.188;-0.374;2023-02-17T03:13:19;102293.56;;;14.18;78.79
48862;BME280;34681;49.188;-0.374;2023-02-17T03:15:45;102289.50;;;14.33;78.18
48862;BME280;34681;49.188;-0.374;2023-02-17T03:18:11;102298.34;;;14.16;78.78
48862;BME280;34681;49.188;-0.374;2023-02-17T03:20:40;102295.69;;;13.94;79.58
48862;BME280;34681;49.188;-0.374;2023-02-17T03:23:07;102290.25;;;14.03;79.37
48862;BME280;34681;49.188;-0.374;2023-02-17T03:25:33;102293.44;;;13.99;79.45
48862;BME280;34681;49.188;-0.374;2023-02-17T03:27:58;102296.34;;;13.86;80.06
48862;BME280;34681;49.188;-0.374;2023-02-17T03:30:24;102302.22;;;13.82;80.32
48862;BME280;34681;49.188;-0.374;2023-02-17T03:32:49;102307.28;;;13.65;80.88
48862;BME280;34681;49.188;-0.374;2023-02-17T03:35:14;102311.09;;;13.85;80.65
48862;BME280;34681;49.188;-0.374;2023-02-17T03:37:40;102318.22;;;13.88;80.31
48862;BME280;34681;49.188;-0.374;2023-02-17T03:40:06;102315.50;;;13.76;80.73
48862;BME280;34681;49.188;-0.374;2023-02-17T03:42:32;102318.94;;;13.90;80.17
48862;BME280;34681;49.188;-0.374;2023-02-17T03:44:57;102318.44;;;13.96;79.79
48862;BME280;34681;49.188;-0.374;2023-02-17T03:47:23;102324.56;;;13.99;79.52
48862;BME280;34681;49.188;-0.374;2023-02-17T03:49:50;102324.81;;;13.96;79.66
48862;BME280;34681;49.188;-0.374;2023-02-17T03:52:15;102318.78;;;14.02;79.10
48862;BME280;34681;49.188;-0.374;2023-02-17T03:54:41;102315.09;;;13.92;79.27
48862;BME280;34681;49.188;-0.374;2023-02-17T03:57:06;102322.09;;;13.85;79.66
48862;BME280;34681;49.188;-0.374;2023-02-17T03:59:31;102328.50;;;14.06;78.99
48862;BME280;34681;49.188;-0.374;2023-02-17T04:01:57;102329.31;;;13.97;79.06
48862;BME280;34681;49.188;-0.374;2023-02-17T04:04:22;102330.72;;;13.92;79.48
48862;BME280;34681;49.188;-0.374;2023-02-17T04:06:47;102333.34;;;13.93;79.49
48862;BME280;34681;49.188;-0.374;2023-02-17T04:09:13;102342.41;;;14.05;78.98
48862;BME280;34681;49.188;-0.374;2023-02-17T04:11:38;102342.69;;;14.02;79.18
48862;BME280;34681;49.188;-0.374;2023-02-17T04:14:04;102346.50;;;13.78;79.95
48862;BME280;34681;49.188;-0.374;2023-02-17T04:16:29;102347.97;;;13.94;79.72
48862;BME280;34681;49.188;-0.374;2023-02-17T04:18:54;102352.38;;;13.85;79.73
48862;BME280;34681;49.188;-0.374;2023-02-17T04:21:20;102353.44;;;14.05;79.20
48862;BME280;34681;49.188;-0.374;2023-02-17T04:23:45;102355.16;;;14.06;79.14
48862;BME280;34681;49.188;-0.374;2023-02-17T04:26:11;102344.28;;;14.04;79.25
48862;BME280;34681;49.188;-0.374;2023-02-17T04:28:38;102346.81;;;14.08;79.23
48862;BME280;34681;49.188;-0.374;2023-02-17T04:31:04;102353.69;;;14.02;79.29
48862;BME280;34681;49.188;-0.374;2023-02-17T04:33:29;102347.41;;;14.11;78.83
48862;BME280;34681;49.188;-0.374;2023-02-17T04:35:55;102348.25;;;13.91;79.48
48862;BME280;34681;49.188;-0.374;2023-02-17T04:38:25;102355.72;;;14.00;79.58
48862;BME280;34681;49.188;-0.374;2023-02-17T04:40:53;102357.19;;;14.04;79.40
48862;BME280;34681;49.188;-0.374;2023-02-17T04:43:19;102352.41;;;14.06;79.12
48862;BME280;34681;49.188;-0.374;2023-02-17T04:45:44;102344.56;;;14.01;79.48
48862;BME280;34681;49.188;-0.374;2023-02-17T04:48:09;102343.03;;;14.09;79.30
48862;BME280;34681;49.188;-0.374;2023-02-17T04:50:35;102351.00;;;13.91;79.73
48862;BME280;34681;49.188;-0.374;2023-02-17T04:53:00;102353.25;;;13.86;80.50
48862;BME280;34681;49.188;-0.374;2023-02-17T04:55:25;102353.44;;;14.05;79.81
48862;BME280;34681;49.188;-0.374;2023-02-17T04:57:51;102353.78;;;14.12;79.47
48862;BME280;34681;49.188;-0.374;2023-02-17T05:00:16;102360.03;;;14.14;79.67
48862;BME280;34681;49.188;-0.374;2023-02-17T05:02:42;102358.50;;;14.21;79.29
48862;BME280;34681;49.188;-0.374;2023-02-17T05:05:07;102360.16;;;14.12;79.70
48862;BME280;34681;49.188;-0.374;2023-02-17T05:07:32;102364.19;;;14.08;79.75
48862;BME280;34681;49.188;-0.374;2023-02-17T05:09:58;102368.19;;;14.04;80.31
48862;BME280;34681;49.188;-0.374;2023-02-17T05:12:23;102363.25;;;13.87;80.87
48862;BME280;34681;49.188;-0.374;2023-02-17T05:14:48;102366.88;;;13.87;81.13
48862;BME280;34681;49.188;-0.374;2023-02-17T05:17:14;102363.66;;;14.14;80.25
48862;BME280;34681;49.188;-0.374;2023-02-17T05:19:39;102375.34;;;13.95;80.79
48862;BME280;34681;49.188;-0.374;2023-02-17T05:22:04;102369.25;;;13.81;81.48
48862;BME280;34681;49.188;-0.374;2023-02-17T05:24:30;102379.13;;;13.94;81.20
48862;BME280;34681;49.188;-0.374;2023-02-17T05:26:55;102374.06;;;14.11;80.60
48862;BME280;34681;49.188;-0.374;2023-02-17T05:29:21;102385.28;;;14.19;80.42
48862;BME280;34681;49.188;-0.374;2023-02-17T05:31:47;102378.50;;;13.91;81.06
48862;BME280;34681;49.188;-0.374;2023-02-17T05:34:12;102380.81;;;14.06;80.93
48862;BME280;34681;49.188;-0.374;2023-02-17T05:36:38;102380.47;;;14.00;81.05
48862;BME280;34681;49.188;-0.374;2023-02-17T05:39:03;102392.38;;;14.00;80.95
48862;BME280;34681;49.188;-0.374;2023-02-17T05:41:28;102383.84;;;14.03;80.92
48862;BME280;34681;49.188;-0.374;2023-02-17T05:43:54;102377.16;;;14.17;80.22
48862;BME280;34681;49.188;-0.374;2023-02-17T05:46:19;102394.69;;;14.16;80.51
48862;BME280;34681;49.188;-0.374;2023-02-17T05:48:47;102386.22;;;13.97;80.90
48862;BME280;34681;49.188;-0.374;2023-02-17T05:51:12;102395.91;;;13.80;81.54
48862;BME280;34681;49.188;-0.374;2023-02-17T05:53:41;102390.91;;;13.85;81.57
48862;BME280;34681;49.188;-0.374;2023-02-17T05:56:06;102404.63;;;14.08;81.16
48862;BME280;34681;49.188;-0.374;2023-02-17T05:58:32;102407.22;;;13.98;81.29
48862;BME280;34681;49.188;-0.374;2023-02-17T06:00:57;102410.44;;;13.82;81.71
48862;BME280;34681;49.188;-0.374;2023-02-17T06:03:22;102419.66;;;13.92;81.45
48862;BME280;34681;49.188;-0.374;2023-02-17T06:05:48;102417.84;;;14.14;80.72
48862;BME280;34681;49.188;-0.374;2023-02-17T06:08:13;102417.47;;;14.18;80.58
48862;BME280;34681;49.188;-0.374;2023-02-17T06:10:40;102431.38;;;14.05;80.92
48862;BME280;34681;49.188;-0.374;2023-02-17T06:13:06;102423.41;;;13.80;81.85
48862;BME280;34681;49.188;-0.374;2023-02-17T06:15:31;102416.00;;;14.03;81.17
48862;BME280;34681;49.188;-0.374;2023-02-17T06:17:58;102411.00;;;13.97;81.09
48862;BME280;34681;49.188;-0.374;2023-02-17T06:20:23;102417.91;;;13.91;81.36
48862;BME280;34681;49.188;-0.374;2023-02-17T06:22:49;102424.47;;;14.11;80.75
48862;BME280;34681;49.188;-0.374;2023-02-17T06:25:14;102417.84;;;14.14;80.68
48862;BME280;34681;49.188;-0.374;2023-02-17T06:27:40;102422.09;;;14.18;80.20
48862;BME280;34681;49.188;-0.374;2023-02-17T06:30:07;102427.28;;;14.00;80.87
48862;BME280;34681;49.188;-0.374;2023-02-17T06:32:33;102431.13;;;13.97;81.03
48862;BME280;34681;49.188;-0.374;2023-02-17T06:34:59;102430.91;;;14.00;81.11
48862;BME280;34681;49.188;-0.374;2023-02-17T06:37:24;102431.75;;;14.01;80.85
48862;BME280;34681;49.188;-0.374;2023-02-17T06:39:49;102438.09;;;14.13;80.44
48862;BME280;34681;49.188;-0.374;2023-02-17T06:42:15;102441.25;;;14.08;80.38
48862;BME280;34681;49.188;-0.374;2023-02-17T06:44:40;102438.28;;;14.00;80.81
48862;BME280;34681;49.188;-0.374;2023-02-17T06:47:06;102439.53;;;14.07;80.50
48862;BME280;34681;49.188;-0.374;2023-02-17T06:49:31;102436.00;;;14.16;80.31
48862;BME280;34681;49.188;-0.374;2023-02-17T06:51:56;102439.22;;;14.21;80.04
48862;BME280;34681;49.188;-0.374;2023-02-17T06:54:22;102446.22;;;14.14;80.00
48862;BME280;34681;49.188;-0.374;2023-02-17T06:56:47;102435.13;;;14.16;80.07
48862;BME280;34681;49.188;-0.374;2023-02-17T06:59:12;102439.63;;;14.05;80.37
48862;BME280;34681;49.188;-0.374;2023-02-17T07:01:38;102433.47;;;14.13;80.28
48862;BME280;34681;49.188;-0.374;2023-02-17T07:04:05;102442.22;;;14.18;79.98
48862;BME280;34681;49.188;-0.374;2023-02-17T07:06:31;102443.75;;;14.11;80.25
48862;BME280;34681;49.188;-0.374;2023-02-17T07:08:57;102449.53;;;14.08;80.22
48862;BME280;34681;49.188;-0.374;2023-02-17T07:11:22;102451.50;;;14.17;79.99
48862;BME280;34681;49.188;-0.374;2023-02-17T07:13:47;102452.84;;;14.23;79.71
48862;BME280;34681;49.188;-0.374;2023-02-17T07:16:13;102453.50;;;14.15;79.87
48862;BME280;34681;49.188;-0.374;2023-02-17T07:18:39;102459.50;;;14.20;79.67
48862;BME280;34681;49.188;-0.374;2023-02-17T07:21:07;102459.63;;;14.19;79.58
48862;BME280;34681;49.188;-0.374;2023-02-17T07:23:33;102459.63;;;14.19;79.42
48862;BME280;34681;49.188;-0.374;2023-02-17T07:26:06;102466.78;;;14.10;79.97
48862;BME280;34681;49.188;-0.374;2023-02-17T07:28:33;102461.78;;;14.15;79.61
48862;BME280;34681;49.188;-0.374;2023-02-17T07:31:10;102473.00;;;14.23;79.59
48862;BME280;34681;49.188;-0.374;2023-02-17T07:33:36;102463.34;;;14.29;79.04
48862;BME280;34681;49.188;-0.374;2023-02-17T07:36:06;102465.22;;;14.28;78.83
48862;BME280;34681;49.188;-0.374;2023-02-17T07:38:32;102461.53;;;14.07;79.33
48862;BME280;34681;49.188;-0.374;2023-02-17T07:41:12;102462.88;;;14.13;79.46
48862;BME280;34681;49.188;-0.374;2023-02-17T07:43:38;102458.97;;;14.26;78.51
48862;BME280;34681;49.188;-0.374;2023-02-17T07:46:04;102460.13;;;14.24;78.91
48862;BME280;34681;49.188;-0.374;2023-02-17T07:48:30;102453.28;;;14.39;78.26
48862;BME280;34681;49.188;-0.374;2023-02-17T07:50:56;102467.28;;;14.58;77.57
48862;BME280;34681;49.188;-0.374;2023-02-17T07:53:21;102459.94;;;14.48;77.53
48862;BME280;34681;49.188;-0.374;2023-02-17T07:55:47;102460.63;;;14.61;77.06
48862;BME280;34681;49.188;-0.374;2023-02-17T07:58:12;102469.09;;;14.48;77.51
48862;BME280;34681;49.188;-0.374;2023-02-17T08:00:38;102468.41;;;14.56;77.61
48862;BME280;34681;49.188;-0.374;2023-02-17T08:03:03;102463.47;;;14.71;76.66
48862;BME280;34681;49.188;-0.374;2023-02-17T08:05:28;102461.56;;;14.50;76.82
48862;BME280;34681;49.188;-0.374;2023-02-17T08:07:54;102467.06;;;14.50;77.02
48862;BME280;34681;49.188;-0.374;2023-02-17T08:10:37;102466.63;;;14.12;78.23
48862;BME280;34681;49.188;-0.374;2023-02-17T08:13:22;102470.25;;;14.12;78.73
48862;BME280;34681;49.188;-0.374;2023-02-17T08:15:48;102474.50;;;14.27;78.33
48862;BME280;34681;49.188;-0.374;2023-02-17T08:18:13;102469.94;;;14.38;78.13
48862;BME280;34681;49.188;-0.374;2023-02-17T08:20:38;102473.38;;;14.73;76.77
48862;BME280;34681;49.188;-0.374;2023-02-17T08:23:04;102480.00;;;15.24;75.07
48862;BME280;34681;49.188;-0.374;2023-02-17T08:25:34;102480.97;;;15.43;74.27
48862;BME280;34681;49.188;-0.374;2023-02-17T08:28:01;102476.41;;;15.33;74.46
48862;BME280;34681;49.188;-0.374;2023-02-17T08:30:26;102480.78;;;15.35;74.26
48862;BME280;34681;49.188;-0.374;2023-02-17T08:32:51;102484.75;;;15.42;74.17
48862;BME280;34681;49.188;-0.374;2023-02-17T08:35:17;102491.13;;;15.22;74.67
48862;BME280;34681;49.188;-0.374;2023-02-17T08:37:48;102490.25;;;15.22;74.48
48862;BME280;34681;49.188;-0.374;2023-02-17T08:40:14;102486.09;;;15.27;74.26
48862;BME280;34681;49.188;-0.374;2023-02-17T08:42:39;102492.28;;;15.40;73.57
48862;BME280;34681;49.188;-0.374;2023-02-17T08:45:05;102507.16;;;15.49;73.12
48862;BME280;34681;49.188;-0.374;2023-02-17T08:47:31;102510.53;;;15.83;72.31
48862;BME280;34681;49.188;-0.374;2023-02-17T08:49:56;102510.06;;;16.09;70.69
48862;BME280;34681;49.188;-0.374;2023-02-17T08:52:22;102514.09;;;16.05;70.52
48862;BME280;34681;49.188;-0.374;2023-02-17T08:54:47;102514.16;;;16.14;70.21
48862;BME280;34681;49.188;-0.374;2023-02-17T08:57:13;102505.94;;;16.43;69.69
48862;BME280;34681;49.188;-0.374;2023-02-17T08:59:38;102517.53;;;16.37;68.92
48862;BME280;34681;49.188;-0.374;2023-02-17T09:02:03;102522.13;;;16.08;69.03
48862;BME280;34681;49.188;-0.374;2023-02-17T09:04:29;102523.19;;;15.86;68.99
48862;BME280;34681;49.188;-0.374;2023-02-17T09:06:54;102523.81;;;15.68;69.51
48862;BME280;34681;49.188;-0.374;2023-02-17T09:09:22;102535.78;;;15.37;70.49
48862;BME280;34681;49.188;-0.374;2023-02-17T09:11:51;102537.81;;;15.56;70.21
48862;BME280;34681;49.188;-0.374;2023-02-17T09:14:19;102544.50;;;15.74;69.87
48862;BME280;34681;49.188;-0.374;2023-02-17T09:16:48;102538.94;;;16.05;69.21
48862;BME280;34681;49.188;-0.374;2023-02-17T09:19:14;102550.31;;;16.11;68.54
48862;BME280;34681;49.188;-0.374;2023-02-17T09:21:40;102542.34;;;16.18;68.27
48862;BME280;34681;49.188;-0.374;2023-02-17T09:24:05;102538.41;;;16.11;68.67
48862;BME280;34681;49.188;-0.374;2023-02-17T09:26:31;102547.91;;;16.27;68.15
48862;BME280;34681;49.188;-0.374;2023-02-17T09:28:59;102551.22;;;16.21;68.34
48862;BME280;34681;49.188;-0.374;2023-02-17T09:31:25;102554.22;;;15.99;68.45
48862;BME280;34681;49.188;-0.374;2023-02-17T09:33:51;102560.88;;;16.37;67.65
48862;BME280;34681;49.188;-0.374;2023-02-17T09:36:18;102559.53;;;16.71;67.22
48862;BME280;34681;49.188;-0.374;2023-02-17T09:38:44;102562.31;;;16.81;66.53
48862;BME280;34681;49.188;-0.374;2023-02-17T09:41:26;102566.06;;;16.70;66.41
48862;BME280;34681;49.188;-0.374;2023-02-17T09:43:52;102558.88;;;16.39;66.92
48862;BME280;34681;49.188;-0.374;2023-02-17T09:49:07;102580.66;;;16.82;66.22
48862;BME280;34681;49.188;-0.374;2023-02-17T09:51:59;102583.00;;;17.06;65.15
48862;BME280;34681;49.188;-0.374;2023-02-17T09:54:31;102597.56;;;17.18;64.66
48862;BME280;34681;49.188;-0.374;2023-02-17T09:57:00;102588.38;;;17.17;64.49
48862;BME280;34681;49.188;-0.374;2023-02-17T09:59:41;102601.34;;;17.36;64.01
48862;BME280;34681;49.188;-0.374;2023-02-17T10:03:09;102595.81;;;17.26;63.95
48862;BME280;34681;49.188;-0.374;2023-02-17T10:05:10;102594.06;;;17.16;63.96
48862;BME280;34681;49.188;-0.374;2023-02-17T10:07:45;102608.06;;;17.24;63.96
48862;BME280;34681;49.188;-0.374;2023-02-17T10:10:21;102609.19;;;17.11;63.26
48862;BME280;34681;49.188;-0.374;2023-02-17T10:12:55;102605.28;;;17.43;62.96
48862;BME280;34681;49.188;-0.374;2023-02-17T10:15:26;102612.28;;;17.47;63.12
48862;BME280;34681;49.188;-0.374;2023-02-17T10:23:49;102613.28;;;17.46;62.74
48862;BME280;34681;49.188;-0.374;2023-02-17T10:26:25;102612.56;;;17.34;63.13
48862;BME280;34681;49.188;-0.374;2023-02-17T10:29:03;102615.16;;;17.46;63.35
48862;BME280;34681;49.188;-0.374;2023-02-17T10:31:46;102609.06;;;17.32;63.23
48862;BME280;34681;49.188;-0.374;2023-02-17T10:34:36;102611.53;;;17.35;63.29
48862;BME280;34681;49.188;-0.374;2023-02-17T10:37:08;102612.13;;;17.39;63.47
48862;BME280;34681;49.188;-0.374;2023-02-17T10:39:52;102607.88;;;17.64;62.63
48862;BME280;34681;49.188;-0.374;2023-02-17T10:42:20;102609.63;;;17.55;62.96
48862;BME280;34681;49.188;-0.374;2023-02-17T10:44:48;102609.75;;;17.54;62.62
48862;BME280;34681;49.188;-0.374;2023-02-17T10:47:15;102618.66;;;17.57;62.48
48862;BME280;34681;49.188;-0.374;2023-02-17T10:49:45;102624.16;;;17.86;62.27
48862;BME280;34681;49.188;-0.374;2023-02-17T10:52:17;102620.81;;;17.92;62.07
48862;BME280;34681;49.188;-0.374;2023-02-17T10:54:49;102619.13;;;18.19;61.56
48862;BME280;34681;49.188;-0.374;2023-02-17T10:57:16;102630.56;;;17.87;61.47
48862;BME280;34681;49.188;-0.374;2023-02-17T10:59:44;102622.19;;;17.30;62.70
48862;BME280;34681;49.188;-0.374;2023-02-17T11:04:55;102615.59;;;17.02;64.10
48862;BME280;34681;49.188;-0.374;2023-02-17T11:07:39;102616.03;;;17.36;63.73
48862;BME280;34681;49.188;-0.374;2023-02-17T11:10:28;102615.19;;;17.17;63.88
48862;BME280;34681;49.188;-0.374;2023-02-17T11:12:54;102603.09;;;17.18;63.95
48862;BME280;34681;49.188;-0.374;2023-02-17T11:15:26;102595.50;;;16.81;64.42
48862;BME280;34681;49.188;-0.374;2023-02-17T11:17:52;102599.69;;;16.75;65.01
48862;BME280;34681;49.188;-0.374;2023-02-17T11:22:46;102596.53;;;16.99;64.53
48862;BME280;34681;49.188;-0.374;2023-02-17T11:25:27;102597.97;;;16.94;64.75
48862;BME280;34681;49.188;-0.374;2023-02-17T11:27:58;102591.56;;;16.83;65.11
48862;BME280;34681;49.188;-0.374;2023-02-17T11:30:26;102593.47;;;16.83;64.90
48862;BME280;34681;49.188;-0.374;2023-02-17T11:32:53;102580.09;;;16.88;64.80
48862;BME280;34681;49.188;-0.374;2023-02-17T11:38:14;102589.09;;;16.90;64.92
48862;BME280;34681;49.188;-0.374;2023-02-17T11:40:50;102588.78;;;16.74;64.88
48862;BME280;34681;49.188;-0.374;2023-02-17T11:43:16;102587.16;;;16.71;65.09
48862;BME280;34681;49.188;-0.374;2023-02-17T11:46:08;102592.44;;;17.03;64.62
48862;BME280;34681;49.188;-0.374;2023-02-17T11:51:28;102592.13;;;16.87;64.58
48862;BME280;34681;49.188;-0.374;2023-02-17T11:54:03;102592.03;;;17.08;64.25
48862;BME280;34681;49.188;-0.374;2023-02-17T11:56:36;102591.25;;;16.87;64.29
48862;BME280;34681;49.188;-0.374;2023-02-17T12:13:01;102610.16;;;16.32;66.15
48862;BME280;34681;49.188;-0.374;2023-02-17T12:18:55;102628.13;;;15.95;66.59
48862;BME280;34681;49.188;-0.374;2023-02-17T12:21:32;102615.13;;;16.07;66.52
48862;BME280;34681;49.188;-0.374;2023-02-17T12:26:45;102619.00;;;15.74;67.37
48862;BME280;34681;49.188;-0.374;2023-02-17T12:31:59;102617.25;;;16.24;66.31
48862;BME280;34681;49.188;-0.374;2023-02-17T12:34:43;102609.00;;;16.34;65.85
48862;BME280;34681;49.188;-0.374;2023-02-17T12:37:23;102611.63;;;16.36;66.00
48862;BME280;34681;49.188;-0.374;2023-02-17T12:39:55;102612.56;;;16.15;66.07
48862;BME280;34681;49.188;-0.374;2023-02-17T12:42:35;102615.69;;;16.32;65.51
48862;BME280;34681;49.188;-0.374;2023-02-17T12:45:16;102619.50;;;16.10;65.96
48862;BME280;34681;49.188;-0.374;2023-02-17T12:47:54;102608.44;;;16.10;65.95
48862;BME280;34681;49.188;-0.374;2023-02-17T12:50:38;102614.69;;;16.12;65.98
48862;BME280;34681;49.188;-0.374;2023-02-17T12:53:14;102614.69;;;16.12;66.17
48862;BME280;34681;49.188;-0.374;2023-02-17T12:55:47;102612.75;;;16.23;65.69
48862;BME280;34681;49.188;-0.374;2023-02-17T12:58:19;102605.50;;;16.32;65.61
48862;BME280;34681;49.188;-0.374;2023-02-17T13:00:51;102607.00;;;16.46;64.88
48862;BME280;34681;49.188;-0.374;2023-02-17T13:03:19;102614.22;;;16.37;65.36
48862;BME280;34681;49.188;-0.374;2023-02-17T13:08:44;102600.06;;;16.21;65.79
48862;BME280;34681;49.188;-0.374;2023-02-17T13:11:27;102606.59;;;16.20;65.43
48862;BME280;34681;49.188;-0.374;2023-02-17T13:13:52;102609.38;;;16.20;65.38
48862;BME280;34681;49.188;-0.374;2023-02-17T13:16:18;102611.47;;;16.37;65.08
48862;BME280;34681;49.188;-0.374;2023-02-17T13:18:46;102617.59;;;16.10;65.59
48862;BME280;34681;49.188;-0.374;2023-02-17T13:24:12;102627.06;;;15.87;66.32
48862;BME280;34681;49.188;-0.374;2023-02-17T13:26:42;102633.81;;;15.73;66.83
48862;BME280;34681;49.188;-0.374;2023-02-17T13:29:20;102626.19;;;16.07;65.87
48862;BME280;34681;49.188;-0.374;2023-02-17T13:31:57;102622.56;;;15.86;66.15
48862;BME280;34681;49.188;-0.374;2023-02-17T13:34:35;102622.66;;;15.75;66.68
48862;BME280;34681;49.188;-0.374;2023-02-17T13:37:23;102620.84;;;15.64;66.65
48862;BME280;34681;49.188;-0.374;2023-02-17T13:39:51;102625.44;;;15.63;67.12
48862;BME280;34681;49.188;-0.374;2023-02-17T13:42:40;102623.69;;;15.62;67.44
48862;BME280;34681;49.188;-0.374;2023-02-17T13:47:49;102618.56;;;15.58;67.74
48862;BME280;34681;49.188;-0.374;2023-02-17T13:50:45;102616.78;;;15.89;67.18
48862;BME280;34681;49.188;-0.374;2023-02-17T13:53:33;102612.31;;;15.97;66.71
48862;BME280;34681;49.188;-0.374;2023-02-17T13:56:00;102614.16;;;15.66;66.67
48862;BME280;34681;49.188;-0.374;2023-02-17T13:58:33;102610.97;;;15.92;66.59